DW7589 Weather Reports


Display with metric or nautical units.
time (UTC)temp
F
wind
direction
speed
MPH
gust
MPH
rain 1hr
in
rain 24hr
in
rain mn
in
humidity
%
barometer
mb
20181019174514 60 359 2.0 5.0 0.01 0.50 0.43 95 1023.3
20181019174014 60 2 1.0 4.0 0.01 0.50 0.43 96 1023.2
20181019172513 59 1 1.0 4.0 0.03 0.49 0.42 96 1023.4
20181019172013 59 357 1.0 4.0 0.04 0.49 0.42 96 1023.5
20181019170513 59 344 1.0 4.0 0.09 0.49 0.42 96 1023.6
20181019165014 58 357 1.0 5.0 0.17 0.49 0.42 96 1023.8
20181019163513 58 352 1.0 4.0 0.17 0.48 0.41 95 1023.9
20181019162511 58 357 1.0 5.0 0.18 0.46 0.39 95 1023.9
20181019162013 58 358 1.0 3.0 0.22 0.45 0.38 95 1023.8
20181019161012 58 0 0.0 3.0 0.28 0.42 0.35 95 1024.1
20181019160512 58 0 0.0 2.0 0.28 0.39 0.32 95 1024.2
20181019160012 58 0 0.0 3.0 0.28 0.36 0.29 95 1024.2
20181019155013 58 0 0.0 2.0 0.24 0.32 0.25 95 1024.5
20181019153012 58 0 0.0 2.0 0.22 0.30 0.23 95 1024.4
20181019152512 59 342 1.0 3.0 0.20 0.28 0.21 94 1024.0
20181019150512 59 0 0.0 3.0 0.02 0.10 0.03 95 1023.9
20181019150011 59 0 0.0 2.0 0.00 0.08 0.01 95 1024.0
20181019145512 59 0 0.0 3.0 0.00 0.08 0.01 95 1023.9
20181019145013 59 7 1.0 3.0 0.00 0.08 0.01 95 1023.7
20181019144013 59 5 1.0 4.0 0.00 0.08 0.01 95 1023.6
20181019142512 58 346 1.0 3.0 0.00 0.08 0.01 95 1023.8
20181019142014 58 0 0.0 3.0 0.00 0.08 0.01 95 1023.7
20181019135513 58 0 0.0 3.0 0.00 0.08 0.01 95 1023.5
20181019135011 58 0 0.0 2.0 0.00 0.08 0.01 96 1023.4
20181019134511 58 344 1.0 4.0 0.00 0.08 0.01 96 1023.3
20181019134012 58 344 1.0 4.0 0.00 0.08 0.01 95 1023.3
20181019133012 58 357 1.0 4.0 0.00 0.08 0.01 95 1023.3
20181019131512 58 0 0.0 2.0 0.00 0.08 0.01 95 1023.2
20181019131012 58 0 0.0 3.0 0.00 0.08 0.01 95 1023.1
20181019130512 58 0 0.0 3.0 0.00 0.08 0.01 95 1023.0
20181019125013 58 0 0.0 2.0 0.00 0.08 0.01 95 1023.1
20181019124513 58 0 0.0 2.0 0.00 0.08 0.01 95 1023.1
20181019124013 58 0 0.0 2.0 0.00 0.08 0.01 95 1023.1
20181019123513 58 0 0.0 3.0 0.00 0.08 0.01 95 1023.1
20181019123015 58 0 0.0 3.0 0.00 0.08 0.01 95 1023.1
20181019122011 58 0 0.0 1.0 0.00 0.08 0.01 95 1023.1
20181019121514 58 0 0.0 1.0 0.00 0.08 0.01 95 1023.1
20181019121012 58 0 0.0 2.0 0.00 0.08 0.01 95 1023.1
20181019120512 58 0 0.0 2.0 0.00 0.08 0.01 95 1023.1
20181019120014 58 0 0.0 3.0 0.00 0.08 0.01 95 1023.1
20181019115013 58 0 0.0 2.0 0.01 0.08 0.01 95 1023.2
20181019113514 58 356 1.0 4.0 0.01 0.08 0.01 95 1023.2
20181019110511 58 0 0.0 2.0 0.01 0.08 0.01 95 1022.9
20181019110015 58 0 0.0 2.0 0.01 0.08 0.01 95 1022.9
20181019105511 58 0 0.0 2.0 0.01 0.08 0.01 95 1023.0
20181019104515 58 0 0.0 3.0 0.00 0.07 0.00 94 1022.8
20181019104011 58 0 0.0 0.0 0.00 0.07 0.00 94 1022.7
20181019103515 58 0 0.0 0.0 0.00 0.07 0.00 94 1022.7
20181019102514 58 0 0.0 0.0 0.00 0.07 0.00 94 1022.7
20181019102015 58 0 0.0 0.0 0.00 0.07 0.00 94 1022.7
20181019101514 58 0 0.0 0.0 0.00 0.07 0.00 94 1022.8
20181019101013 58 0 0.0 0.0 0.00 0.07 0.00 94 1022.8
20181019100011 58 0 0.0 0.0 0.00 0.07 0.00 94 1022.8
20181019094511 58 0 0.0 0.0 0.00 0.07 0.00 94 1023.0
20181019094011 58 0 0.0 0.0 0.00 0.07 0.00 94 1023.0
20181019093514 58 0 0.0 0.0 0.00 0.07 0.00 94 1022.9
20181019093015 58 0 0.0 0.0 0.00 0.07 0.00 94 1022.9
20181019092014 58 0 0.0 0.0 0.00 0.07 0.00 94 1022.9
20181019091012 58 0 0.0 0.0 0.00 0.07 0.00 94 1023.0
20181019090011 58 0 0.0 0.0 0.00 0.07 0.00 94 1023.1
20181019085515 58 0 0.0 0.0 0.00 0.07 0.00 94 1023.1
20181019085011 58 0 0.0 0.0 0.00 0.07 0.00 94 1023.2
20181019084511 58 0 0.0 0.0 0.00 0.07 0.00 94 1023.2
20181019084014 58 0 0.0 0.0 0.00 0.07 0.00 94 1023.2
20181019083015 58 0 0.0 0.0 0.00 0.07 0.00 94 1023.4
20181019082014 58 0 0.0 0.0 0.00 0.07 0.00 94 1023.6
20181019081514 58 0 0.0 0.0 0.00 0.07 0.00 94 1023.7
20181019081014 58 0 0.0 0.0 0.00 0.07 0.00 94 1023.6
20181019080523 58 0 0.0 0.0 0.00 0.07 0.00 94 1023.8
20181019074512 58 0 0.0 0.0 0.00 0.07 0.00 94 1024.0
20181019074011 58 0 0.0 0.0 0.00 0.07 0.00 94 1024.0
20181019073014 58 0 0.0 0.0 0.00 0.07 0.00 94 1024.0
20181019072513 58 0 0.0 0.0 0.00 0.07 0.00 94 1024.0
20181019071012 58 0 0.0 1.0 0.00 0.07 0.00 94 1024.0
20181019070016 58 0 0.0 0.0 0.00 0.07 0.00 94 1024.0
20181019065013 58 0 0.0 0.0 0.00 0.07 0.00 94 1024.1
20181019064012 58 0 0.0 0.0 0.00 0.07 0.00 94 1024.1
20181019063513 58 0 0.0 0.0 0.00 0.07 0.00 94 1024.1
20181019062513 58 0 0.0 0.0 0.00 0.07 0.00 94 1024.2
20181019062013 58 0 0.0 0.0 0.00 0.07 0.00 94 1024.3
20181019061512 58 0 0.0 0.0 0.00 0.07 0.00 94 1024.3
20181019060014 58 0 0.0 2.0 0.00 0.07 0.00 94 1024.5
20181019055512 58 0 0.0 2.0 0.00 0.07 0.00 94 1024.5
20181019055013 58 0 0.0 1.0 0.00 0.07 0.00 94 1024.6
20181019054512 58 0 0.0 3.0 0.00 0.07 0.00 94 1024.6
20181019053012 58 0 0.0 1.0 0.00 0.07 0.00 94 1024.6
20181019052513 58 0 0.0 1.0 0.00 0.07 0.00 94 1024.7
20181019052013 58 0 0.0 1.0 0.00 0.07 0.00 94 1024.8
20181019051512 58 0 0.0 0.0 0.00 0.07 0.00 94 1024.8
20181019051011 58 0 0.0 0.0 0.00 0.07 0.00 94 1024.8
20181019044011 58 0 0.0 0.0 0.00 0.07 0.07 93 1025.2
20181019043511 58 0 0.0 0.0 0.00 0.07 0.07 93 1025.2
20181019042513 58 0 0.0 0.0 0.00 0.07 0.07 93 1025.2
20181019041514 58 0 0.0 0.0 0.00 0.07 0.07 93 1025.3
20181019041011 58 0 0.0 0.0 0.00 0.07 0.07 93 1025.4
20181019040511 58 0 0.0 1.0 0.00 0.07 0.07 93 1025.5
20181019040010 58 0 0.0 1.0 0.00 0.07 0.07 93 1025.5
20181019035011 58 0 0.0 1.0 0.00 0.07 0.07 93 1025.6
20181019034512 58 0 0.0 1.0 0.00 0.07 0.07 93 1025.5
20181019034012 58 0 0.0 1.0 0.00 0.07 0.07 93 1025.6
20181019033512 58 0 0.0 1.0 0.00 0.07 0.07 93 1025.6
20181019033012 58 0 0.0 1.0 0.00 0.07 0.07 93 1025.6
20181019032012 58 0 0.0 3.0 0.00 0.07 0.07 93 1025.5
20181019031012 58 0 0.0 3.0 0.01 0.07 0.07 93 1025.5
20181019030512 58 0 0.0 1.0 0.01 0.07 0.07 93 1025.5
20181019030011 58 0 0.0 1.0 0.01 0.07 0.07 93 1025.7
20181019025513 58 0 0.0 1.0 0.01 0.07 0.07 93 1025.7
20181019024512 58 0 0.0 3.0 0.01 0.07 0.07 92 1025.8
20181019024012 58 0 0.0 0.0 0.01 0.07 0.07 92 1025.9
20181019023510 58 0 0.0 1.0 0.02 0.07 0.07 92 1025.9
20181019022512 58 0 0.0 3.0 0.02 0.07 0.07 92 1025.8
20181019022011 58 0 0.0 1.0 0.02 0.07 0.07 92 1025.9
20181019021511 58 0 0.0 1.0 0.02 0.07 0.07 92 1025.9
20181019021013 58 0 0.0 2.0 0.01 0.06 0.06 92 1026.0
20181019020512 59 0 0.0 2.0 0.01 0.06 0.06 92 1026.0
20181019015011 59 0 0.0 0.0 0.01 0.06 0.06 92 1026.0
20181019014511 59 0 0.0 0.0 0.01 0.06 0.06 92 1026.0
20181019014012 59 0 0.0 1.0 0.00 0.05 0.05 91 1025.9
20181019013512 59 0 0.0 1.0 0.00 0.05 0.05 91 1025.9
20181019013011 59 0 0.0 0.0 0.00 0.05 0.05 92 1025.8
20181019012512 59 0 0.0 0.0 0.00 0.05 0.05 91 1025.8
20181019012011 59 0 0.0 0.0 0.00 0.05 0.05 91 1025.7
20181019011012 59 0 0.0 1.0 0.00 0.05 0.05 91 1025.6
20181019010011 59 0 0.0 1.0 0.00 0.05 0.05 91 1025.4
20181019005512 59 0 0.0 1.0 0.00 0.05 0.05 91 1025.4
20181019003512 59 0 0.0 1.0 0.00 0.05 0.05 91 1025.3
20181019002512 59 0 0.0 1.0 0.00 0.05 0.05 92 1025.4
20181019002010 59 0 0.0 1.0 0.00 0.05 0.05 92 1025.2
20181019001511 59 0 0.0 0.0 0.00 0.05 0.05 92 1025.2
20181019000012 60 0 0.0 1.0 0.00 0.05 0.05 92 1025.1
20181018235010 60 0 0.0 3.0 0.00 0.05 0.05 92 1025.2
20181018234511 60 0 0.0 4.0 0.00 0.05 0.05 92 1025.1
20181018234011 60 0 0.0 4.0 0.00 0.05 0.05 92 1025.0
20181018233012 60 0 0.0 1.0 0.00 0.05 0.05 92 1025.0
20181018232013 60 0 0.0 2.0 0.00 0.05 0.05 92 1025.0
20181018231511 60 0 0.0 3.0 0.00 0.05 0.05 92 1024.8
20181018231011 60 0 0.0 4.0 0.00 0.05 0.05 92 1024.8
20181018230513 60 13 1.0 4.0 0.01 0.05 0.05 92 1024.9
20181018230012 60 0 0.0 3.0 0.01 0.05 0.05 93 1025.0
20181018225510 60 0 0.0 3.0 0.01 0.05 0.05 93 1025.0
20181018224510 60 0 0.0 2.0 0.01 0.05 0.05 93 1025.0
20181018224016 60 0 0.0 2.0 0.01 0.05 0.05 93 1025.0
20181018223513 60 0 0.0 2.0 0.01 0.05 0.05 93 1025.0
20181018223011 60 0 0.0 0.0 0.01 0.05 0.05 93 1025.1
20181018222012 60 0 0.0 2.0 0.01 0.05 0.05 92 1025.2
20181018221510 60 0 0.0 1.0 0.01 0.05 0.05 92 1025.2
20181018221010 60 0 0.0 1.0 0.01 0.05 0.05 92 1025.4
20181018220515 60 0 0.0 1.0 0.00 0.04 0.04 92 1025.3
20181018220013 60 0 0.0 1.0 0.01 0.04 0.04 92 1025.4
20181018215513 59 0 0.0 1.0 0.03 0.04 0.04 92 1025.4
20181018215010 59 0 0.0 1.0 0.03 0.04 0.04 92 1025.4
20181018214512 59 0 0.0 2.0 0.03 0.04 0.04 92 1025.5
20181018213511 60 0 0.0 2.0 0.03 0.04 0.04 92 1025.4
20181018212512 60 0 0.0 2.0 0.03 0.04 0.04 91 1025.5
20181018211012 60 0 0.0 3.0 0.03 0.05 0.04 90 1025.5
20181018210512 60 0 0.0 3.0 0.03 0.05 0.04 90 1025.5
20181018210013 60 0 0.0 3.0 0.02 0.04 0.03 89 1025.6
20181018205513 60 0 0.0 1.0 0.00 0.02 0.01 89 1025.6
20181018205012 60 0 0.0 2.0 0.00 0.02 0.01 89 1025.6
20181018204510 60 0 0.0 2.0 0.00 0.03 0.01 88 1025.7
20181018203512 60 0 0.0 3.0 0.00 0.03 0.01 87 1025.6
20181018202514 60 5 1.0 3.0 0.00 0.03 0.01 87 1025.8
20181018202011 60 0 0.0 3.0 0.00 0.03 0.01 87 1025.8
20181018201012 60 0 0.0 2.0 0.00 0.03 0.01 87 1026.0
20181018200511 60 0 0.0 2.0 0.00 0.04 0.01 87 1026.1
20181018200010 60 0 0.0 3.0 0.01 0.04 0.01 87 1026.2
20181018195512 60 0 0.0 3.0 0.01 0.04 0.01 87 1026.3
20181018194013 60 0 0.0 2.0 0.01 0.04 0.01 88 1026.5
20181018193012 60 0 0.0 2.0 0.01 0.04 0.01 88 1026.6
20181018191511 60 0 0.0 2.0 0.01 0.04 0.01 87 1026.9
20181018190513 60 0 0.0 2.0 0.01 0.04 0.01 86 1027.1
20181018184512 61 0 0.0 2.0 0.00 0.04 0.00 83 1027.4
20181018184010 62 0 0.0 4.0 0.00 0.04 0.00 82 1027.4
20181018183512 62 0 0.0 4.0 0.00 0.04 0.00 81 1027.5
20181018183011 62 0 0.0 1.0 0.00 0.04 0.00 81 1027.5
20181018182010 62 0 0.0 2.0 0.00 0.04 0.00 80 1027.6
20181018181511 62 0 0.0 3.0 0.00 0.04 0.00 79 1027.7
20181018180012 62 0 0.0 4.0 0.00 0.04 0.00 79 1027.9
20181018175513 62 0 0.0 4.0 0.00 0.04 0.00 79 1027.8
20181018175011 62 0 0.0 4.0 0.00 0.04 0.00 79 1027.8